createdAt,value
2022-07-25T00:00:31.160Z,3.80
2022-07-25T00:02:59.745Z,3.63
2022-07-25T00:05:32.145Z,3.75
2022-07-25T00:08:02.492Z,3.60
2022-07-25T00:10:30.593Z,3.92
2022-07-25T00:13:06.942Z,3.70
2022-07-25T00:15:34.973Z,3.50
2022-07-25T00:18:03.410Z,3.80
2022-07-25T00:20:31.609Z,3.60
2022-07-25T00:23:02.742Z,3.50
2022-07-25T00:25:30.852Z,3.70
2022-07-25T00:27:59.017Z,3.85
2022-07-25T00:30:28.017Z,3.67
2022-07-25T00:32:56.079Z,3.90
2022-07-25T00:35:24.164Z,3.92
2022-07-25T00:37:58.400Z,3.80
2022-07-25T00:40:26.901Z,4.13
2022-07-25T00:42:55.479Z,3.97
2022-07-25T00:45:23.592Z,4.30
2022-07-25T00:47:51.791Z,4.00
2022-07-25T00:50:25.397Z,3.88
2022-07-25T00:52:54.286Z,4.30
2022-07-25T00:55:23.413Z,4.07
2022-07-25T00:57:51.610Z,4.15
2022-07-25T01:00:19.818Z,4.63
2022-07-25T01:02:48.489Z,4.10
2022-07-25T01:05:18.813Z,4.45
2022-07-25T01:07:47.303Z,4.03
2022-07-25T01:10:15.282Z,4.57
2022-07-25T01:12:54.308Z,4.40
2022-07-25T01:15:24.215Z,4.15
2022-07-25T01:17:53.114Z,4.40
2022-07-25T01:20:26.668Z,4.32
2022-07-25T01:22:55.159Z,4.30
2022-07-25T01:25:24.056Z,4.70
2022-07-25T01:27:55.843Z,4.78
2022-07-25T01:30:25.394Z,4.88
2022-07-25T01:32:56.457Z,4.93
2022-07-25T01:35:24.606Z,4.55
2022-07-25T01:37:55.022Z,4.72
2022-07-25T01:40:23.265Z,4.97
2022-07-25T01:42:54.483Z,5.03
2022-07-25T01:45:24.235Z,4.50
2022-07-25T01:47:52.489Z,5.10
2022-07-25T01:50:20.570Z,5.13
2022-07-25T01:52:48.673Z,5.00
2022-07-25T01:55:24.387Z,5.32
2022-07-25T01:57:53.447Z,4.88
2022-07-25T02:00:21.679Z,5.45
2022-07-25T02:03:19.559Z,5.20
2022-07-25T02:05:47.617Z,4.90
2022-07-25T02:08:15.689Z,5.13
2022-07-25T02:10:45.133Z,5.45
2022-07-25T02:13:13.076Z,5.68
2022-07-25T02:15:41.281Z,5.22
2022-07-25T02:18:09.568Z,5.55
2022-07-25T02:20:37.978Z,5.25
2022-07-25T02:23:06.218Z,6.13
2022-07-25T02:25:34.793Z,6.15
2022-07-25T02:28:04.350Z,6.30
2022-07-25T02:30:32.559Z,6.22
2022-07-25T02:33:00.569Z,6.40
2022-07-25T02:35:31.679Z,6.30
2022-07-25T02:38:00.145Z,6.30
2022-07-25T02:40:28.262Z,6.28
2022-07-25T02:43:01.650Z,6.32
2022-07-25T02:45:29.684Z,6.60
2022-07-25T02:47:57.854Z,6.90
2022-07-25T02:50:25.737Z,6.78
2022-07-25T02:52:53.765Z,6.97
2022-07-25T02:55:22.553Z,6.55
2022-07-25T02:57:55.202Z,7.32
2022-07-25T03:00:24.035Z,6.65
2022-07-25T03:02:52.242Z,7.18
2022-07-25T03:05:23.346Z,7.10
2022-07-25T03:07:51.333Z,7.05
2022-07-25T03:10:19.509Z,7.13
2022-07-25T03:12:47.662Z,6.82
2022-07-25T03:15:15.767Z,7.30
2022-07-25T03:17:49.074Z,6.93
2022-07-25T03:20:17.036Z,6.45
2022-07-25T03:22:45.304Z,6.70
2022-07-25T03:25:21.464Z,6.78
2022-07-25T03:27:50.882Z,7.38
2022-07-25T03:30:19.010Z,7.10
2022-07-25T03:32:50.249Z,6.50
2022-07-25T03:35:18.593Z,6.88
2022-07-25T03:37:46.928Z,7.07
2022-07-25T03:40:15.900Z,6.88
2022-07-25T03:42:49.933Z,7.50
2022-07-25T03:45:17.960Z,6.97
2022-07-25T03:47:46.097Z,6.95
2022-07-25T03:50:14.083Z,7.10
2022-07-25T03:52:42.500Z,7.05
2022-07-25T03:55:12.460Z,7.30
2022-07-25T03:57:40.560Z,7.50
2022-07-25T04:00:10.599Z,7.22
2022-07-25T04:02:38.850Z,7.05
2022-07-25T04:05:08.323Z,6.60
2022-07-25T04:07:36.998Z,6.95
2022-07-25T04:10:08.354Z,6.20
2022-07-25T04:12:36.615Z,6.47
2022-07-25T04:15:07.522Z,6.63
2022-07-25T04:17:35.552Z,6.53
2022-07-25T04:20:08.528Z,6.75
2022-07-25T04:22:37.072Z,6.50
2022-07-25T04:25:06.504Z,6.82
2022-07-25T04:27:35.069Z,6.22
2022-07-25T04:30:03.189Z,6.60
2022-07-25T04:32:31.171Z,6.78
2022-07-25T04:34:59.205Z,6.32
2022-07-25T04:37:27.795Z,6.38
2022-07-25T04:39:56.162Z,6.32
2022-07-25T04:42:26.907Z,6.18
2022-07-25T04:44:56.198Z,6.32
2022-07-25T04:47:24.380Z,6.82
2022-07-25T04:49:53.276Z,5.95
2022-07-25T04:52:21.379Z,5.95
2022-07-25T04:54:49.690Z,6.07
2022-07-25T04:57:17.625Z,6.15
2022-07-25T04:59:46.076Z,6.03
2022-07-25T05:02:14.292Z,5.95
2022-07-25T05:04:45.329Z,5.65
2022-07-25T05:07:13.799Z,5.75
2022-07-25T05:09:41.841Z,5.50
2022-07-25T05:12:10.325Z,5.57
2022-07-25T05:14:39.098Z,6.10
2022-07-25T05:17:10.309Z,5.60
2022-07-25T05:19:41.426Z,5.60
2022-07-25T05:22:09.446Z,5.60
2022-07-25T05:24:37.843Z,5.82
2022-07-25T05:27:06.120Z,5.60
2022-07-25T05:29:34.382Z,5.40
2022-07-25T05:32:03.234Z,5.75
2022-07-25T05:34:34.617Z,5.50
2022-07-25T05:37:02.667Z,5.10
2022-07-25T05:39:30.764Z,5.07
2022-07-25T05:41:58.861Z,4.55
2022-07-25T05:44:26.817Z,5.07
2022-07-25T05:46:54.930Z,5.03
2022-07-25T05:49:23.147Z,4.65
2022-07-25T05:51:53.572Z,5.38
2022-07-25T05:54:21.546Z,4.68
2022-07-25T05:56:49.723Z,4.82
2022-07-25T05:59:21.554Z,4.85
2022-07-25T06:01:49.794Z,5.75
2022-07-25T06:04:18.351Z,4.90
2022-07-25T06:06:51.225Z,5.28
2022-07-25T06:09:23.359Z,5.10
2022-07-25T06:11:59.952Z,4.57
2022-07-25T06:14:29.001Z,4.50
2022-07-25T06:16:57.738Z,4.90
2022-07-25T06:19:25.842Z,5.05
2022-07-25T06:21:53.759Z,5.70
2022-07-25T06:24:21.644Z,5.80
2022-07-25T06:26:49.637Z,5.60
2022-07-25T06:29:17.603Z,4.78
2022-07-25T06:31:46.492Z,4.72
2022-07-25T06:34:15.410Z,5.20
2022-07-25T06:36:43.374Z,5.40
2022-07-25T06:39:11.433Z,6.00
2022-07-25T06:41:39.392Z,5.80
2022-07-25T06:44:07.955Z,6.13
2022-07-25T06:46:36.339Z,6.18
2022-07-25T06:49:05.510Z,7.10
2022-07-25T06:51:34.262Z,6.63
2022-07-25T06:54:02.848Z,6.93
2022-07-25T06:56:32.877Z,7.30
2022-07-25T06:59:01.305Z,6.75
2022-07-25T07:01:30.318Z,6.53
2022-07-25T07:03:58.850Z,6.38
2022-07-25T07:06:26.861Z,5.75
2022-07-25T07:08:56.076Z,6.75
2022-07-25T07:11:24.082Z,6.90
2022-07-25T07:13:52.247Z,7.03
2022-07-25T07:16:20.326Z,6.57
2022-07-25T07:18:49.497Z,6.13
2022-07-25T07:21:21.546Z,5.80
2022-07-25T07:23:53.528Z,5.28
2022-07-25T07:26:22.483Z,5.60
2022-07-25T07:28:50.573Z,6.20
2022-07-25T07:31:18.895Z,5.63
2022-07-25T07:33:47.030Z,4.90
2022-07-25T07:36:14.892Z,5.10
2022-07-25T07:38:44.492Z,5.15
2022-07-25T07:41:12.853Z,4.65
2022-07-25T07:43:41.828Z,5.32
2022-07-25T07:46:09.876Z,4.35
2022-07-25T07:48:38.077Z,3.90
2022-07-25T07:51:06.304Z,4.03
2022-07-25T07:53:52.968Z,3.65
2022-07-25T07:56:21.304Z,3.70
2022-07-25T07:58:49.209Z,3.50
2022-07-25T08:01:17.533Z,3.30
2022-07-25T08:03:45.401Z,3.15
2022-07-25T08:06:13.475Z,2.85
2022-07-25T08:08:41.286Z,3.10
2022-07-25T08:11:09.215Z,3.00
2022-07-25T08:13:38.298Z,2.58
2022-07-25T08:16:06.995Z,2.70
2022-07-25T08:18:39.467Z,2.50
2022-07-25T08:21:07.587Z,2.60
2022-07-25T08:23:38.626Z,2.50
2022-07-25T08:26:07.656Z,2.20
2022-07-25T08:28:37.535Z,2.53
2022-07-25T08:31:05.643Z,2.38
2022-07-25T08:33:33.696Z,2.90
2022-07-25T08:36:04.192Z,2.95
2022-07-25T08:38:32.264Z,2.45
2022-07-25T08:41:00.741Z,2.78
2022-07-25T08:43:33.193Z,2.20
2022-07-25T08:46:02.235Z,2.47
2022-07-25T08:48:31.253Z,2.40
2022-07-25T08:51:02.053Z,2.45
2022-07-25T08:53:33.578Z,2.60
2022-07-25T08:56:12.575Z,2.80
2022-07-25T08:58:44.095Z,2.13
2022-07-25T09:01:14.982Z,2.30
2022-07-25T09:03:44.215Z,2.13
2022-07-25T09:06:20.642Z,1.85
2022-07-25T09:08:57.923Z,1.90
2022-07-25T09:11:33.169Z,1.60
2022-07-25T09:14:05.285Z,1.60
2022-07-25T09:16:35.725Z,1.48
2022-07-25T09:19:18.528Z,1.52
2022-07-25T09:21:59.573Z,1.40
2022-07-25T09:24:28.907Z,1.50
2022-07-25T09:27:04.641Z,1.60
2022-07-25T09:29:34.141Z,1.60
2022-07-25T09:32:13.426Z,1.85
2022-07-25T09:34:43.243Z,1.60
2022-07-25T09:37:14.162Z,1.60
2022-07-25T09:39:47.120Z,1.50
2022-07-25T09:45:03.064Z,1.50
2022-07-25T09:47:32.707Z,1.40
2022-07-25T09:50:01.663Z,1.40
2022-07-25T09:52:29.875Z,1.52
2022-07-25T09:54:58.010Z,1.50
2022-07-25T09:57:27.500Z,1.50
2022-07-25T09:59:56.245Z,1.70
2022-07-25T10:02:48.522Z,1.30
2022-07-25T10:05:22.545Z,1.40
2022-07-25T10:07:54.086Z,1.75
2022-07-25T10:10:31.269Z,1.60
2022-07-25T10:13:29.463Z,1.75
2022-07-25T10:15:58.543Z,1.40
2022-07-25T10:18:29.000Z,1.40
2022-07-25T10:21:25.626Z,1.63
2022-07-25T10:24:06.350Z,1.40
2022-07-25T10:26:53.125Z,1.58
2022-07-25T10:29:21.049Z,1.65
2022-07-25T10:31:51.375Z,1.67
2022-07-25T10:34:31.559Z,1.80
2022-07-25T10:37:14.398Z,1.52
2022-07-25T10:39:45.447Z,1.50
2022-07-25T10:42:15.612Z,1.48
2022-07-25T10:44:46.599Z,1.60
2022-07-25T10:47:16.519Z,1.60
2022-07-25T10:50:15.247Z,1.50
2022-07-25T10:52:48.982Z,1.50
2022-07-25T10:55:23.921Z,1.80
2022-07-25T10:58:17.748Z,1.25
2022-07-25T11:00:46.269Z,1.80
2022-07-25T11:03:18.413Z,1.50
2022-07-25T11:05:51.927Z,1.80
2022-07-25T11:08:30.798Z,1.77
2022-07-25T11:10:59.646Z,1.73
2022-07-25T11:13:28.552Z,2.00
2022-07-25T11:15:59.779Z,1.65
2022-07-25T11:18:39.629Z,1.90
2022-07-25T11:21:09.367Z,2.00
2022-07-25T11:23:37.724Z,1.80
2022-07-25T11:26:13.193Z,2.03
2022-07-25T11:28:43.893Z,2.40
2022-07-25T11:31:14.873Z,2.40
2022-07-25T11:33:45.992Z,2.40
2022-07-25T11:36:14.353Z,2.78
2022-07-25T11:38:47.165Z,2.65
2022-07-25T11:41:15.313Z,2.70
2022-07-25T11:43:50.843Z,3.10
2022-07-25T11:46:18.883Z,2.65
2022-07-25T11:48:47.768Z,2.60
2022-07-25T11:51:19.492Z,3.03
2022-07-25T11:53:50.804Z,2.40
2022-07-25T11:56:41.772Z,2.40
2022-07-25T11:59:12.020Z,2.60
2022-07-25T12:01:42.644Z,2.10
2022-07-25T12:04:18.967Z,2.10
2022-07-25T12:06:48.649Z,2.30
2022-07-25T12:09:19.779Z,2.65
2022-07-25T12:11:49.804Z,1.80
2022-07-25T12:14:18.121Z,2.20
2022-07-25T12:16:48.174Z,1.88
2022-07-25T12:19:21.079Z,1.80
2022-07-25T12:21:49.395Z,1.70
2022-07-25T12:24:20.257Z,2.00
2022-07-25T12:26:48.477Z,1.70
2022-07-25T12:29:16.483Z,2.13
2022-07-25T12:31:44.489Z,2.30
2022-07-25T12:34:12.593Z,2.63
2022-07-25T12:36:44.795Z,1.90
2022-07-25T12:39:12.652Z,2.95
2022-07-25T12:41:42.662Z,2.03
2022-07-25T12:44:11.122Z,2.13
2022-07-25T12:46:47.239Z,2.25
2022-07-25T12:49:17.802Z,2.28
2022-07-25T12:51:48.517Z,2.05
2022-07-25T12:54:22.233Z,1.98
2022-07-25T12:56:51.571Z,2.15
2022-07-25T12:59:20.005Z,2.13
2022-07-25T13:01:50.652Z,2.67
2022-07-25T13:04:18.703Z,2.30
2022-07-25T13:06:46.783Z,2.53
2022-07-25T13:09:14.653Z,2.22
2022-07-25T13:11:42.745Z,1.95
2022-07-25T13:14:10.924Z,2.05
2022-07-25T13:16:39.128Z,2.05
2022-07-25T13:19:08.005Z,2.25
2022-07-25T13:21:37.829Z,2.13
2022-07-25T13:24:07.449Z,2.25
2022-07-25T13:26:36.927Z,2.53
2022-07-25T13:29:12.489Z,2.40
2022-07-25T13:31:44.075Z,2.60
2022-07-25T13:34:12.297Z,2.35
2022-07-25T13:36:40.363Z,2.00
2022-07-25T13:39:08.848Z,2.17
2022-07-25T13:41:39.546Z,2.60
2022-07-25T13:44:08.908Z,2.30
2022-07-25T13:46:36.816Z,2.35
2022-07-25T13:49:05.181Z,2.95
2022-07-25T13:51:33.742Z,2.63
2022-07-25T13:54:02.356Z,2.50
2022-07-25T13:56:33.359Z,2.47
2022-07-25T13:59:08.138Z,2.67
2022-07-25T14:01:36.987Z,2.55
2022-07-25T14:04:04.986Z,1.92
2022-07-25T14:06:35.843Z,2.25
2022-07-25T14:09:06.705Z,2.08
2022-07-25T14:11:37.803Z,2.15
2022-07-25T14:14:06.668Z,1.90
2022-07-25T14:16:37.065Z,2.00
2022-07-25T14:19:08.679Z,2.00
2022-07-25T14:21:39.125Z,1.80
2022-07-25T14:24:07.843Z,2.03
2022-07-25T14:26:39.463Z,1.83
2022-07-25T14:29:11.147Z,1.80
2022-07-25T14:31:39.914Z,2.38
2022-07-25T14:34:08.107Z,1.70
2022-07-25T14:36:36.703Z,2.10
2022-07-25T14:39:05.838Z,2.13
2022-07-25T14:41:40.275Z,1.80
2022-07-25T14:44:09.860Z,2.25
2022-07-25T14:46:41.959Z,2.45
2022-07-25T14:49:14.511Z,2.15
2022-07-25T14:51:45.243Z,2.45
2022-07-25T14:54:13.713Z,2.00
2022-07-25T14:56:48.076Z,2.60
2022-07-25T14:59:18.565Z,2.00
2022-07-25T15:01:49.830Z,1.98
2022-07-25T15:04:22.004Z,2.15
2022-07-25T15:06:50.038Z,2.10
2022-07-25T15:09:19.207Z,2.20
2022-07-25T15:11:47.993Z,2.33
2022-07-25T15:14:19.654Z,1.65
2022-07-25T15:16:48.118Z,2.25
2022-07-25T15:19:17.323Z,1.80
2022-07-25T15:21:46.930Z,1.73
2022-07-25T15:24:15.431Z,1.73
2022-07-25T15:26:43.593Z,1.83
2022-07-25T15:29:20.509Z,1.67
2022-07-25T15:31:51.735Z,1.50
2022-07-25T15:34:19.900Z,1.63
2022-07-25T15:36:48.693Z,1.38
2022-07-25T15:39:16.700Z,1.25
2022-07-25T15:41:47.471Z,1.30
2022-07-25T15:44:17.736Z,1.30
2022-07-25T15:46:46.548Z,1.35
2022-07-25T15:49:15.953Z,1.27
2022-07-25T15:51:44.264Z,1.15
2022-07-25T15:54:12.698Z,1.35
2022-07-25T15:56:40.947Z,1.20
2022-07-25T15:59:12.795Z,1.20
2022-07-25T16:01:42.853Z,1.20
2022-07-25T16:04:11.165Z,1.30
2022-07-25T16:06:42.747Z,0.90
2022-07-25T16:09:14.569Z,1.10
2022-07-25T16:11:45.551Z,1.27
2022-07-25T16:14:13.555Z,1.30
2022-07-25T16:16:44.949Z,1.10
2022-07-25T16:19:13.443Z,1.30
2022-07-25T16:21:41.796Z,1.15
2022-07-25T16:24:11.090Z,1.30
2022-07-25T16:26:39.236Z,1.40
2022-07-25T16:29:08.202Z,1.50
2022-07-25T16:31:39.252Z,1.58
2022-07-25T16:34:07.690Z,1.40
2022-07-25T16:36:37.036Z,1.50
2022-07-25T16:39:05.484Z,1.35
2022-07-25T16:41:34.034Z,1.30
2022-07-25T16:44:02.014Z,1.15
2022-07-25T16:46:30.546Z,1.20
2022-07-25T16:48:59.077Z,1.10
2022-07-25T16:51:33.060Z,1.25
2022-07-25T16:54:03.617Z,1.58
2022-07-25T16:56:32.458Z,1.00
2022-07-25T16:59:00.995Z,1.10
2022-07-25T17:01:29.213Z,1.45
2022-07-25T17:04:02.364Z,1.17
2022-07-25T17:06:31.146Z,0.98
2022-07-25T17:08:59.690Z,1.08
2022-07-25T17:11:28.843Z,1.00
2022-07-25T17:13:57.207Z,0.93
2022-07-25T17:16:25.509Z,1.10
2022-07-25T17:18:54.195Z,1.13
2022-07-25T17:21:22.743Z,0.90
2022-07-25T17:23:53.122Z,1.15
2022-07-25T17:26:22.537Z,1.33
2022-07-25T17:28:50.811Z,1.20
2022-07-25T17:31:19.557Z,1.20
2022-07-25T17:33:47.986Z,1.20
2022-07-25T17:36:16.736Z,1.20
2022-07-25T17:38:44.992Z,1.40
2022-07-25T17:41:13.162Z,1.27
2022-07-25T17:43:41.422Z,1.20
2022-07-25T17:46:13.387Z,1.30
2022-07-25T17:48:42.514Z,1.10
2022-07-25T17:51:10.997Z,1.00
2022-07-25T17:53:39.340Z,1.08
2022-07-25T17:56:11.116Z,1.35
2022-07-25T17:58:41.156Z,1.20
2022-07-25T18:01:12.540Z,1.38
2022-07-25T18:03:47.902Z,1.50
2022-07-25T18:06:18.845Z,1.60
2022-07-25T18:08:46.870Z,1.63
2022-07-25T18:11:15.423Z,1.15
2022-07-25T18:13:43.675Z,1.23
2022-07-25T18:16:11.821Z,1.30
2022-07-25T18:18:40.957Z,1.38
2022-07-25T18:21:09.418Z,1.50
2022-07-25T18:23:38.309Z,1.40
2022-07-25T18:26:06.534Z,1.33
2022-07-25T18:28:35.510Z,1.38
2022-07-25T18:31:04.807Z,1.67
2022-07-25T18:33:32.862Z,1.15
2022-07-25T18:36:07.642Z,1.40
2022-07-25T18:38:36.976Z,1.30
2022-07-25T18:43:59.064Z,1.45
2022-07-25T18:46:36.928Z,1.52
2022-07-25T18:49:05.826Z,1.35
2022-07-25T18:51:37.165Z,1.75
2022-07-25T18:54:06.695Z,1.40
2022-07-25T18:56:36.596Z,1.38
2022-07-25T18:59:05.274Z,1.25
2022-07-25T19:01:33.590Z,1.23
2022-07-25T19:04:01.740Z,1.45
2022-07-25T19:06:32.481Z,1.45
2022-07-25T19:09:00.660Z,1.42
2022-07-25T19:11:33.360Z,1.30
2022-07-25T19:14:04.148Z,1.75
2022-07-25T19:16:32.823Z,1.58
2022-07-25T19:19:02.076Z,1.45
2022-07-25T19:21:30.466Z,1.48
2022-07-25T19:23:59.130Z,1.30
2022-07-25T19:26:27.513Z,1.58
2022-07-25T19:28:55.989Z,1.33
2022-07-25T19:31:24.083Z,1.40
2022-07-25T19:33:52.819Z,1.42
2022-07-25T19:36:22.871Z,1.63
2022-07-25T19:38:52.742Z,1.27
2022-07-25T19:41:20.945Z,1.50
2022-07-25T19:43:53.306Z,1.35
2022-07-25T19:46:21.614Z,1.30
2022-07-25T19:48:50.269Z,1.30
2022-07-25T19:51:19.308Z,1.35
2022-07-25T19:53:47.352Z,1.60
2022-07-25T19:56:15.489Z,1.10
2022-07-25T19:58:45.124Z,1.20
2022-07-25T20:01:13.778Z,1.55
2022-07-25T20:03:41.979Z,2.15
2022-07-25T20:06:10.160Z,1.30
2022-07-25T20:08:39.661Z,1.33
2022-07-25T20:11:08.347Z,1.20
2022-07-25T20:13:36.731Z,1.02
2022-07-25T20:16:05.455Z,1.17
2022-07-25T20:18:34.163Z,1.30
2022-07-25T20:21:05.412Z,1.25
2022-07-25T20:23:34.226Z,1.30
2022-07-25T20:26:02.933Z,1.27
2022-07-25T20:28:31.287Z,1.40
2022-07-25T20:30:59.620Z,1.27
2022-07-25T20:33:28.034Z,1.60
2022-07-25T20:35:56.194Z,1.40
2022-07-25T20:38:28.694Z,1.48
2022-07-25T20:40:56.912Z,1.27
2022-07-25T20:43:29.752Z,1.58
2022-07-25T20:45:58.075Z,1.83
2022-07-25T20:48:26.692Z,1.38
2022-07-25T20:50:55.287Z,1.63
2022-07-25T20:53:24.648Z,1.73
2022-07-25T20:55:52.669Z,2.08
2022-07-25T20:58:24.036Z,2.00
2022-07-25T21:00:55.728Z,1.40
2022-07-25T21:03:24.208Z,1.83
2022-07-25T21:05:52.286Z,1.70
2022-07-25T21:08:20.551Z,1.70
2022-07-25T21:10:48.608Z,1.50
2022-07-25T21:13:18.489Z,2.25
2022-07-25T21:15:47.482Z,1.90
2022-07-25T21:18:15.544Z,1.92
2022-07-25T21:20:47.219Z,1.52
2022-07-25T21:23:15.567Z,1.80
2022-07-25T21:25:44.264Z,2.00
2022-07-25T21:28:12.435Z,1.60
2022-07-25T21:30:43.690Z,1.58
2022-07-25T21:33:14.754Z,1.42
2022-07-25T21:35:52.026Z,2.30
2022-07-25T21:38:26.947Z,1.80
2022-07-25T21:40:57.802Z,1.85
2022-07-25T21:43:26.898Z,2.10
2022-07-25T21:45:56.077Z,1.88
2022-07-25T21:48:50.056Z,1.70
2022-07-25T21:51:19.194Z,2.10
2022-07-25T21:53:52.756Z,1.73
2022-07-25T21:56:21.481Z,2.00
2022-07-25T21:58:49.649Z,2.03
2022-07-25T22:01:20.759Z,1.75
2022-07-25T22:03:48.943Z,1.90
2022-07-25T22:06:17.639Z,1.88
2022-07-25T22:08:48.488Z,2.58
2022-07-25T22:11:38.406Z,1.80
2022-07-25T22:14:08.898Z,2.42
2022-07-25T22:16:37.083Z,1.58
2022-07-25T22:19:05.746Z,1.65
2022-07-25T22:21:34.391Z,2.15
2022-07-25T22:24:02.477Z,1.80
2022-07-25T22:26:30.424Z,1.85
2022-07-25T22:29:01.707Z,1.90
2022-07-25T22:31:32.763Z,2.20
2022-07-25T22:34:03.760Z,2.10
2022-07-25T22:36:31.872Z,2.00
2022-07-25T22:38:59.971Z,2.35
2022-07-25T22:41:28.492Z,2.08
2022-07-25T22:43:59.616Z,2.38
2022-07-25T22:46:29.853Z,2.20
2022-07-25T22:48:58.930Z,2.22
2022-07-25T22:51:29.127Z,2.72
2022-07-25T22:54:02.081Z,2.42
2022-07-25T22:56:30.234Z,2.38
2022-07-25T22:58:58.826Z,2.30
2022-07-25T23:01:33.519Z,2.17
2022-07-25T23:04:01.990Z,2.50
2022-07-25T23:06:30.099Z,2.30
2022-07-25T23:08:58.039Z,2.35
2022-07-25T23:11:30.258Z,2.60
2022-07-25T23:13:58.358Z,2.33
2022-07-25T23:16:33.159Z,2.72
2022-07-25T23:19:04.536Z,2.00
2022-07-25T23:21:32.964Z,2.90
2022-07-25T23:24:01.405Z,2.40
2022-07-25T23:26:35.077Z,2.47
2022-07-25T23:29:05.866Z,2.63
2022-07-25T23:31:34.754Z,2.60
2022-07-25T23:34:04.787Z,2.25
2022-07-25T23:36:32.772Z,2.35
2022-07-25T23:39:00.806Z,1.92
2022-07-25T23:41:31.360Z,2.67
2022-07-25T23:44:00.675Z,2.20
2022-07-25T23:46:31.035Z,2.60
2022-07-25T23:49:00.358Z,2.45
2022-07-25T23:51:28.920Z,2.30
2022-07-25T23:53:57.777Z,2.58
2022-07-25T23:56:26.169Z,2.50
2022-07-25T23:58:54.124Z,2.10
